Time;durP1;ratioP1;P1;durP2;ratioP2;P2;SDS_P1;SDS_P2;PMS_P1;PMS_P2;Temp;Humidity;BMP_temperature;BMP_pressure;BME280_temperature;BME280_humidity;BME280_pressure;Samples;Min_cycle;Max_cycle;Signal;HPM_P1;HPM_P2
2024/01/09 00:02:31;;;;;;;1.07;1.03;;;;;-3.80;102777.00;;;;5042852;28;20235;-67
2024/01/09 00:05:17;;;;;;;2.33;1.93;;;;;-3.80;102775.00;;;;5037047;28;20314;-69
2024/01/09 00:08:05;;;;;;;1.20;1.10;;;;;-3.80;102777.00;;;;5035275;28;20743;-72
2024/01/09 00:10:51;;;;;;;1.10;1.10;;;;;-3.80;102782.00;;;;5039440;28;20236;-70
2024/01/09 00:13:38;;;;;;;1.40;1.33;;;;;-3.90;102787.00;;;;5033045;28;20294;-71
2024/01/09 00:16:24;;;;;;;2.77;1.97;;;;;-3.90;102779.00;;;;5037458;28;20235;-70
2024/01/09 00:19:10;;;;;;;3.13;1.73;;;;;-3.90;102773.00;;;;5038216;28;20229;-67
2024/01/09 00:21:57;;;;;;;0.90;0.90;;;;;-3.90;102774.00;;;;5040297;28;20359;-69
2024/01/09 00:24:45;;;;;;;0.77;0.77;;;;;-3.90;102765.00;;;;5045016;28;20252;-69
2024/01/09 00:27:31;;;;;;;1.33;1.20;;;;;-3.90;102767.00;;;;5040875;28;20228;-70
2024/01/09 00:30:19;;;;;;;1.07;1.03;;;;;-4.00;102765.00;;;;5039795;28;20228;-70
2024/01/09 00:33:05;;;;;;;1.77;1.67;;;;;-4.00;102762.00;;;;5034945;28;20749;-71
2024/01/09 00:35:52;;;;;;;1.00;1.00;;;;;-4.00;102763.00;;;;5045111;28;20351;-70
2024/01/09 00:38:38;;;;;;;1.27;1.27;;;;;-4.00;102763.00;;;;5043975;28;20228;-70
2024/01/09 00:41:25;;;;;;;1.03;1.00;;;;;-4.00;102765.00;;;;5035980;28;20232;-70
2024/01/09 00:44:12;;;;;;;1.73;1.63;;;;;-3.90;102764.00;;;;5039287;28;20235;-70
2024/01/09 00:46:58;;;;;;;1.60;1.50;;;;;-4.00;102757.00;;;;5039457;28;20278;-72
2024/01/09 00:49:46;;;;;;;1.07;1.07;;;;;-4.00;102763.00;;;;5042805;28;20378;-71
2024/01/09 00:52:32;;;;;;;0.97;0.97;;;;;-4.00;102762.00;;;;5042373;28;20248;-68
2024/01/09 00:55:18;;;;;;;1.10;1.10;;;;;-4.00;102765.00;;;;5046213;28;20604;-70
2024/01/09 00:58:06;;;;;;;0.87;0.87;;;;;-4.10;102758.00;;;;5042922;28;20763;-69
2024/01/09 01:00:52;;;;;;;0.90;0.90;;;;;-4.10;102761.00;;;;5045526;28;20216;-70
2024/01/09 01:03:40;;;;;;;2.23;1.07;;;;;-4.10;102765.00;;;;5044248;28;20249;-71
2024/01/09 01:06:26;;;;;;;1.00;1.00;;;;;-4.00;102766.00;;;;5038264;28;20401;-67
2024/01/09 01:09:13;;;;;;;1.17;1.17;;;;;-4.10;102757.00;;;;5040178;28;20622;-70
2024/01/09 01:11:59;;;;;;;1.37;1.20;;;;;-4.20;102761.00;;;;5031477;28;20794;-70
2024/01/09 01:14:46;;;;;;;1.07;1.07;;;;;-4.20;102766.00;;;;5044545;28;20240;-70
2024/01/09 01:17:33;;;;;;;1.30;1.30;;;;;-4.20;102764.00;;;;5040861;28;20256;-70
2024/01/09 01:20:19;;;;;;;1.27;1.17;;;;;-4.20;102756.00;;;;5038402;28;20760;-69
2024/01/09 01:23:06;;;;;;;1.23;1.23;;;;;-4.10;102761.00;;;;5046623;28;20703;-71
2024/01/09 01:25:52;;;;;;;3.90;2.17;;;;;-4.20;102763.00;;;;5040897;28;20220;-72
2024/01/09 01:28:39;;;;;;;1.80;1.70;;;;;-4.20;102761.00;;;;5042534;28;20282;-70
2024/01/09 01:31:27;;;;;;;1.30;1.30;;;;;-4.20;102754.00;;;;5040067;28;20282;-70
2024/01/09 01:34:13;;;;;;;1.40;1.30;;;;;-4.20;102762.00;;;;5039194;28;20240;-73
2024/01/09 01:36:59;;;;;;;2.10;1.10;;;;;-4.30;102755.00;;;;5039160;28;20294;-70
2024/01/09 01:39:45;;;;;;;0.93;0.93;;;;;-4.40;102750.00;;;;5046145;28;20240;-71
2024/01/09 01:42:32;;;;;;;1.93;1.70;;;;;-4.30;102757.00;;;;5042714;28;20236;-71
2024/01/09 01:45:23;;;;;;;1.37;1.00;;;;;-4.40;102755.00;;;;5046056;28;20780;-70
2024/01/09 01:48:12;;;;;;;1.53;1.43;;;;;-4.40;102756.00;;;;5039292;28;20236;-72
2024/01/09 01:50:59;;;;;;;1.10;1.10;;;;;-4.40;102762.00;;;;5036728;28;20228;-69
2024/01/09 01:53:46;;;;;;;1.03;1.03;;;;;-4.30;102751.00;;;;5028858;28;20288;-70
2024/01/09 01:56:33;;;;;;;1.40;1.30;;;;;-4.40;102758.00;;;;5040857;28;20725;-70
2024/01/09 01:59:21;;;;;;;0.90;0.90;;;;;-4.50;102754.00;;;;5036111;28;20237;-70
2024/01/09 02:02:08;;;;;;;1.90;1.80;;;;;-4.40;102763.00;;;;5037228;28;20810;-71
2024/01/09 02:04:56;;;;;;;1.50;1.40;;;;;-4.40;102767.00;;;;5040597;28;20292;-70
2024/01/09 02:07:46;;;;;;;2.13;1.53;;;;;-4.40;102765.00;;;;5041913;28;20236;-71
2024/01/09 02:10:32;;;;;;;1.70;1.57;;;;;-4.40;102757.00;;;;5032304;28;20356;-71
2024/01/09 02:13:18;;;;;;;1.47;1.37;;;;;-4.40;102757.00;;;;5034921;28;20232;-70
2024/01/09 02:16:05;;;;;;;1.20;1.10;;;;;-4.40;102753.00;;;;5033753;28;20310;-71
2024/01/09 02:18:51;;;;;;;0.97;0.93;;;;;-4.40;102754.00;;;;5043600;28;20780;-70
2024/01/09 02:21:39;;;;;;;1.47;1.47;;;;;-4.40;102753.00;;;;5043949;28;20232;-71
2024/01/09 02:24:25;;;;;;;1.47;1.47;;;;;-4.40;102752.00;;;;5039868;28;20225;-70
2024/01/09 02:27:18;;;;;;;1.50;1.40;;;;;-4.40;102753.00;;;;5044168;28;20812;-70
2024/01/09 02:30:09;;;;;;;2.23;1.73;;;;;-4.40;102753.00;;;;5030745;28;20228;-69
2024/01/09 02:32:55;;;;;;;1.27;1.27;;;;;-4.40;102758.00;;;;5043944;28;20240;-72
2024/01/09 02:35:41;;;;;;;0.87;0.87;;;;;-4.50;102751.00;;;;5043576;28;20244;-69
2024/01/09 02:38:27;;;;;;;2.03;1.93;;;;;-4.60;102750.00;;;;5041341;28;20236;-69
2024/01/09 02:41:14;;;;;;;2.40;1.40;;;;;-4.50;102741.00;;;;5043147;28;20605;-71
2024/01/09 02:44:00;;;;;;;1.50;1.40;;;;;-4.60;102753.00;;;;5043508;28;20820;-69
2024/01/09 02:46:48;;;;;;;1.60;1.50;;;;;-4.60;102750.00;;;;5042521;28;20283;-70
2024/01/09 02:49:35;;;;;;;1.20;1.20;;;;;-4.50;102750.00;;;;5042288;28;20290;-66
2024/01/09 02:52:22;;;;;;;0.90;0.90;;;;;-4.50;102751.00;;;;5035658;28;20869;-73
2024/01/09 02:55:08;;;;;;;1.37;1.37;;;;;-4.60;102757.00;;;;5030763;28;20857;-72
2024/01/09 02:57:55;;;;;;;1.97;1.60;;;;;-4.60;102743.00;;;;5042940;28;20361;-70
2024/01/09 03:00:41;;;;;;;1.37;1.27;;;;;-4.60;102752.00;;;;5039175;28;20264;-71
2024/01/09 03:03:29;;;;;;;1.40;1.30;;;;;-4.70;102744.00;;;;5039107;28;20244;-69
2024/01/09 03:06:15;;;;;;;1.10;1.10;;;;;-4.70;102750.00;;;;5038139;28;20229;-67
2024/01/09 03:09:01;;;;;;;1.20;1.17;;;;;-4.70;102744.00;;;;5043214;28;20381;-70
2024/01/09 03:11:48;;;;;;;2.30;1.50;;;;;-4.70;102743.00;;;;5041230;28;20607;-70
2024/01/09 03:14:37;;;;;;;1.70;1.60;;;;;-4.70;102745.00;;;;5039894;28;20308;-71
2024/01/09 03:17:23;;;;;;;1.10;1.10;;;;;-4.70;102746.00;;;;5042139;28;20236;-71
2024/01/09 03:20:11;;;;;;;1.37;1.27;;;;;-4.80;102751.00;;;;5043283;28;20232;-69
2024/01/09 03:22:57;;;;;;;0.77;0.77;;;;;-4.80;102749.00;;;;5034669;28;20233;-69
2024/01/09 03:25:43;;;;;;;1.30;1.30;;;;;-4.80;102753.00;;;;5042390;28;20240;-70
2024/01/09 03:28:30;;;;;;;1.37;1.37;;;;;-4.80;102751.00;;;;5042215;28;20232;-65
2024/01/09 03:31:20;;;;;;;1.43;1.23;;;;;-4.80;102755.00;;;;5037289;28;20716;-71
2024/01/09 03:34:06;;;;;;;1.57;1.47;;;;;-4.80;102752.00;;;;5035054;28;20241;-72
2024/01/09 03:36:54;;;;;;;1.63;1.40;;;;;-4.80;102749.00;;;;5038145;28;20256;-70
2024/01/09 03:39:40;;;;;;;1.30;1.20;;;;;-4.80;102746.00;;;;5043193;28;20217;-70
2024/01/09 03:42:26;;;;;;;1.50;1.50;;;;;-4.80;102743.00;;;;5038700;28;20733;-71
2024/01/09 03:45:12;;;;;;;1.50;1.40;;;;;-4.70;102747.00;;;;5035957;28;20736;-68
2024/01/09 03:47:59;;;;;;;1.27;1.27;;;;;-4.70;102748.00;;;;5043552;28;20706;-70
2024/01/09 03:50:45;;;;;;;2.13;1.93;;;;;-4.70;102759.00;;;;5034962;28;20733;-70
2024/01/09 03:53:33;;;;;;;2.33;1.90;;;;;-4.70;102750.00;;;;5038801;28;20232;-68
2024/01/09 03:56:19;;;;;;;1.87;1.77;;;;;-4.80;102747.00;;;;5044260;28;20728;-70
2024/01/09 03:59:05;;;;;;;1.77;1.67;;;;;-4.80;102742.00;;;;5046912;28;20228;-70
2024/01/09 04:01:51;;;;;;;1.10;1.10;;;;;-4.80;102747.00;;;;5047468;28;20243;-69
2024/01/09 04:04:38;;;;;;;3.80;1.80;;;;;-4.90;102747.00;;;;5040205;28;20245;-72
2024/01/09 04:07:24;;;;;;;2.13;1.50;;;;;-4.90;102742.00;;;;5043112;28;20228;-70
2024/01/09 04:10:12;;;;;;;1.00;1.00;;;;;-4.90;102735.00;;;;5047085;28;20223;-68
2024/01/09 04:12:58;;;;;;;1.63;1.53;;;;;-4.80;102722.00;;;;5037828;28;20721;-70
2024/01/09 04:15:44;;;;;;;1.77;1.67;;;;;-4.90;102738.00;;;;5044752;28;20748;-71
2024/01/09 04:18:31;;;;;;;1.40;0.97;;;;;-4.80;102741.00;;;;5040488;28;21040;-71
2024/01/09 04:21:17;;;;;;;1.57;1.50;;;;;-4.90;102728.00;;;;5040664;28;20229;-70
2024/01/09 04:24:03;;;;;;;1.27;1.27;;;;;-4.90;102723.00;;;;5039663;28;20260;-70
2024/01/09 04:26:51;;;;;;;2.13;2.03;;;;;-5.00;102730.00;;;;5036475;28;20243;-69
2024/01/09 04:29:37;;;;;;;1.23;1.23;;;;;-5.00;102719.00;;;;5040490;28;20306;-70
2024/01/09 04:32:24;;;;;;;1.70;1.60;;;;;-5.00;102717.00;;;;5036597;28;20347;-69
2024/01/09 04:35:10;;;;;;;2.03;1.87;;;;;-5.00;102728.00;;;;5044214;28;20316;-72
2024/01/09 04:37:56;;;;;;;0.90;0.90;;;;;-5.10;102720.00;;;;5046518;28;20714;-69
2024/01/09 04:40:43;;;;;;;1.30;1.17;;;;;-5.00;102723.00;;;;5036526;28;20236;-70
2024/01/09 04:43:31;;;;;;;1.67;1.57;;;;;-5.00;102719.00;;;;5034267;28;20364;-70
2024/01/09 04:46:17;;;;;;;2.17;2.07;;;;;-5.10;102717.00;;;;5046981;28;20268;-71
2024/01/09 04:49:04;;;;;;;1.13;1.13;;;;;-5.20;102717.00;;;;5045127;28;20290;-71
2024/01/09 04:51:51;;;;;;;1.27;1.17;;;;;-5.30;102719.00;;;;5044081;28;20231;-70
2024/01/09 04:54:38;;;;;;;2.43;2.23;;;;;-5.20;102713.00;;;;5040215;28;20225;-72
2024/01/09 04:57:24;;;;;;;2.20;2.10;;;;;-5.30;102721.00;;;;5040658;28;20238;-71
2024/01/09 05:00:13;;;;;;;1.93;1.83;;;;;-5.20;102713.00;;;;5044163;28;20226;-70
2024/01/09 05:02:59;;;;;;;2.90;2.00;;;;;-5.20;102717.00;;;;5041050;28;20236;-71
2024/01/09 05:05:46;;;;;;;1.33;1.23;;;;;-5.20;102717.00;;;;5040844;28;20232;-70
2024/01/09 05:08:32;;;;;;;1.30;1.30;;;;;-5.10;102716.00;;;;5044104;28;20236;-71
2024/01/09 05:11:18;;;;;;;1.50;1.40;;;;;-5.10;102717.00;;;;5045333;28;20739;-70
2024/01/09 05:14:05;;;;;;;0.83;0.83;;;;;-5.20;102721.00;;;;5044588;28;20737;-70
2024/01/09 05:16:52;;;;;;;0.90;0.90;;;;;-5.10;102711.00;;;;5039141;28;20289;-71
2024/01/09 05:19:39;;;;;;;1.80;1.70;;;;;-5.20;102712.00;;;;5036348;28;20225;-71
2024/01/09 05:22:26;;;;;;;2.33;1.13;;;;;-5.10;102723.00;;;;5038277;28;20363;-73
2024/01/09 05:25:13;;;;;;;1.10;1.10;;;;;-5.20;102718.00;;;;5041176;28;21898;-68
2024/01/09 05:27:59;;;;;;;2.00;1.90;;;;;-5.20;102708.00;;;;5040549;28;20232;-68
2024/01/09 05:30:45;;;;;;;1.17;1.17;;;;;-5.20;102717.00;;;;5037782;28;20236;-70
2024/01/09 05:33:33;;;;;;;1.43;1.33;;;;;-5.20;102703.00;;;;5037850;28;20707;-72
2024/01/09 05:36:22;;;;;;;3.60;1.73;;;;;-5.20;102710.00;;;;5041950;28;20391;-70
2024/01/09 05:39:08;;;;;;;1.57;1.50;;;;;-5.30;102718.00;;;;5040277;28;20278;-69
2024/01/09 05:41:55;;;;;;;1.17;1.17;;;;;-5.30;102728.00;;;;5041724;28;20240;-70
2024/01/09 05:44:41;;;;;;;2.10;1.80;;;;;-5.30;102714.00;;;;5036093;28;20315;-72
2024/01/09 05:47:28;;;;;;;3.03;2.13;;;;;-5.30;102717.00;;;;4998859;28;1064959;-71
2024/01/09 05:50:15;;;;;;;1.77;1.07;;;;;-5.20;102719.00;;;;5043534;28;20236;-71
2024/01/09 05:53:02;;;;;;;1.27;1.23;;;;;-5.20;102699.00;;;;5042321;28;20224;-70
2024/01/09 05:55:49;;;;;;;1.87;1.77;;;;;-5.30;102711.00;;;;5039063;28;20232;-71
2024/01/09 05:58:35;;;;;;;1.17;1.17;;;;;-5.30;102715.00;;;;5031669;28;20240;-73
2024/01/09 06:01:21;;;;;;;1.37;1.27;;;;;-5.20;102709.00;;;;5045403;28;20233;-69
2024/01/09 06:04:07;;;;;;;1.27;1.17;;;;;-5.30;102724.00;;;;5045523;28;20797;-71
2024/01/09 06:06:55;;;;;;;2.47;2.30;;;;;-5.30;102712.00;;;;5042217;28;20609;-71
2024/01/09 06:09:41;;;;;;;1.67;1.57;;;;;-5.30;102715.00;;;;5038865;28;20395;-70
2024/01/09 06:12:28;;;;;;;1.00;1.00;;;;;-5.40;102731.00;;;;5036180;28;20225;-70
2024/01/09 06:15:14;;;;;;;1.73;1.50;;;;;-5.40;102723.00;;;;5038981;28;20255;-70
2024/01/09 06:18:01;;;;;;;1.30;1.30;;;;;-5.50;102721.00;;;;5044326;28;20315;-69
2024/01/09 06:20:47;;;;;;;1.73;1.63;;;;;-5.40;102727.00;;;;5042214;28;20240;-70
2024/01/09 06:23:35;;;;;;;1.80;1.70;;;;;-5.40;102718.00;;;;5037869;28;20224;-71
2024/01/09 06:26:22;;;;;;;2.20;1.87;;;;;-5.50;102719.00;;;;5041381;28;21475;-71
2024/01/09 06:29:08;;;;;;;2.60;1.70;;;;;-5.40;102727.00;;;;5044552;28;20236;-71
2024/01/09 06:31:54;;;;;;;1.87;1.77;;;;;-5.40;102731.00;;;;5041144;28;20228;-70
2024/01/09 06:34:40;;;;;;;2.60;2.40;;;;;-5.50;102730.00;;;;5037643;28;20241;-69
2024/01/09 06:37:27;;;;;;;1.70;1.60;;;;;-5.40;102726.00;;;;5043965;28;20596;-72
2024/01/09 06:40:19;;;;;;;2.60;2.43;;;;;-5.50;102725.00;;;;5042574;28;20233;-71
2024/01/09 06:43:07;;;;;;;1.80;1.70;;;;;-5.50;102729.00;;;;5040621;28;20729;-70
2024/01/09 06:45:54;;;;;;;1.40;1.33;;;;;-5.50;102725.00;;;;5045355;28;20257;-71
2024/01/09 06:48:40;;;;;;;3.50;2.33;;;;;-5.50;102736.00;;;;5037570;28;20336;-71
2024/01/09 06:51:28;;;;;;;1.93;1.83;;;;;-5.50;102747.00;;;;5038362;28;20248;-70
2024/01/09 06:54:15;;;;;;;1.50;1.33;;;;;-5.60;102736.00;;;;5039495;28;20228;-70
2024/01/09 06:57:02;;;;;;;1.80;1.70;;;;;-5.60;102744.00;;;;5036556;28;20291;-71
2024/01/09 06:59:49;;;;;;;2.37;2.17;;;;;-5.50;102748.00;;;;5033240;28;20221;-70
2024/01/09 07:02:35;;;;;;;1.10;1.10;;;;;-5.50;102741.00;;;;5038884;28;20216;-70
2024/01/09 07:05:22;;;;;;;1.13;1.10;;;;;-5.50;102745.00;;;;5042892;28;20309;-73
2024/01/09 07:08:08;;;;;;;2.57;2.07;;;;;-5.50;102752.00;;;;5039480;28;20314;-72
2024/01/09 07:10:56;;;;;;;2.03;1.80;;;;;-5.50;102754.00;;;;5038382;28;20233;-69
2024/01/09 07:13:44;;;;;;;2.57;2.33;;;;;-5.40;102769.00;;;;5039680;28;20259;-73
2024/01/09 07:16:30;;;;;;;4.93;2.57;;;;;-5.50;102771.00;;;;5044229;28;20727;-73
2024/01/09 07:19:16;;;;;;;2.43;1.90;;;;;-5.50;102759.00;;;;5035095;28;20909;-71
2024/01/09 07:22:03;;;;;;;1.30;1.30;;;;;-5.50;102770.00;;;;5037207;28;20404;-71
2024/01/09 07:24:50;;;;;;;1.63;1.53;;;;;-5.50;102776.00;;;;5029860;28;20886;-72
2024/01/09 07:27:36;;;;;;;1.77;1.63;;;;;-5.40;102780.00;;;;5026411;28;20228;-73
2024/01/09 07:30:24;;;;;;;1.47;1.47;;;;;-5.40;102778.00;;;;5039986;28;20244;-73
2024/01/09 07:33:10;;;;;;;2.23;2.13;;;;;-5.40;102776.00;;;;5039752;28;20352;-71
2024/01/09 07:35:56;;;;;;;2.57;1.97;;;;;-5.50;102785.00;;;;5038465;28;20715;-72
2024/01/09 07:38:43;;;;;;;1.80;1.70;;;;;-5.50;102794.00;;;;5036964;28;20240;-70
2024/01/09 07:41:29;;;;;;;2.37;2.20;;;;;-5.50;102783.00;;;;5036714;28;20683;-72
2024/01/09 07:44:15;;;;;;;6.20;2.13;;;;;-5.60;102794.00;;;;5039653;28;20605;-73
2024/01/09 07:47:03;;;;;;;3.73;3.07;;;;;-5.50;102784.00;;;;5039949;28;20236;-71
2024/01/09 07:49:49;;;;;;;2.20;2.10;;;;;-5.50;102789.00;;;;5033679;28;20228;-70
2024/01/09 07:52:36;;;;;;;1.83;1.73;;;;;-5.50;102782.00;;;;5030022;28;20224;-71
2024/01/09 07:55:22;;;;;;;1.60;1.50;;;;;-5.40;102794.00;;;;5041489;28;20820;-72
2024/01/09 07:58:09;;;;;;;2.13;2.00;;;;;-5.50;102788.00;;;;5039461;28;20746;-66
2024/01/09 08:00:55;;;;;;;1.77;1.67;;;;;-5.40;102783.00;;;;5033248;28;20236;-70
2024/01/09 08:03:43;;;;;;;1.63;1.53;;;;;-5.50;102789.00;;;;5036367;28;20239;-71
2024/01/09 08:06:29;;;;;;;1.30;1.30;;;;;-5.40;102789.00;;;;5042958;28;20884;-71
2024/01/09 08:09:17;;;;;;;2.27;2.07;;;;;-5.40;102778.00;;;;5040084;28;20233;-70
2024/01/09 08:12:03;;;;;;;2.13;2.03;;;;;-5.40;102794.00;;;;5036934;28;20236;-71
2024/01/09 08:14:50;;;;;;;1.50;1.40;;;;;-5.40;102783.00;;;;5042070;28;20658;-71
2024/01/09 08:17:37;;;;;;;4.70;2.10;;;;;-5.40;102777.00;;;;5043601;28;20232;-72
2024/01/09 08:20:25;;;;;;;2.60;2.40;;;;;-5.40;102791.00;;;;5033780;28;20793;-73
2024/01/09 08:23:11;;;;;;;1.73;1.63;;;;;-5.40;102788.00;;;;5037218;28;20874;-72
2024/01/09 08:25:58;;;;;;;2.53;2.33;;;;;-5.30;102791.00;;;;5033603;28;20304;-71
2024/01/09 08:28:44;;;;;;;1.80;1.70;;;;;-5.20;102805.00;;;;5036880;28;20655;-71
2024/01/09 08:31:30;;;;;;;2.07;1.87;;;;;-5.30;102798.00;;;;5034785;28;21007;-73
2024/01/09 08:34:17;;;;;;;2.83;2.60;;;;;-5.20;102781.00;;;;5039018;28;20235;-69
2024/01/09 08:37:05;;;;;;;1.93;1.83;;;;;-5.20;102784.00;;;;5036465;28;20276;-72
2024/01/09 08:39:51;;;;;;;1.83;1.70;;;;;-5.20;102792.00;;;;5041986;28;20240;-72
2024/01/09 08:42:38;;;;;;;3.63;1.87;;;;;-5.00;102785.00;;;;5041670;28;20232;-71
2024/01/09 08:45:25;;;;;;;1.67;1.57;;;;;-4.90;102800.00;;;;5022221;28;20237;-73
2024/01/09 08:48:11;;;;;;;1.63;1.50;;;;;-4.90;102797.00;;;;5042565;28;20641;-70
2024/01/09 08:50:57;;;;;;;4.63;2.37;;;;;-4.90;102802.00;;;;5043579;28;20231;-73
2024/01/09 08:53:45;;;;;;;1.77;1.67;;;;;-4.90;102807.00;;;;5039772;28;20231;-72
2024/01/09 08:56:31;;;;;;;1.97;1.87;;;;;-4.90;102801.00;;;;5043440;28;20237;-69
2024/01/09 08:59:18;;;;;;;3.67;1.67;;;;;-4.90;102803.00;;;;5041547;28;20236;-70
2024/01/09 09:02:05;;;;;;;2.43;2.20;;;;;-4.90;102810.00;;;;5046233;28;20228;-70
2024/01/09 09:04:51;;;;;;;1.73;1.63;;;;;-4.80;102797.00;;;;5046611;28;20240;-70
2024/01/09 09:07:37;;;;;;;2.93;1.83;;;;;-4.80;102805.00;;;;5044476;28;20264;-70
2024/01/09 09:10:25;;;;;;;1.67;1.57;;;;;-4.80;102788.00;;;;5045899;28;20307;-71
2024/01/09 09:13:11;;;;;;;2.37;2.20;;;;;-4.60;102793.00;;;;5046155;28;20294;-72
2024/01/09 09:15:58;;;;;;;7.47;1.97;;;;;-4.70;102789.00;;;;5040117;28;20351;-72
2024/01/09 09:18:44;;;;;;;2.03;1.73;;;;;-4.50;102799.00;;;;5046296;28;20323;-72
2024/01/09 09:21:31;;;;;;;1.70;1.60;;;;;-4.40;102799.00;;;;5043666;28;20243;-71
2024/01/09 09:24:18;;;;;;;2.80;1.90;;;;;-4.40;102799.00;;;;5041770;28;20278;-71
2024/01/09 09:27:06;;;;;;;2.63;1.90;;;;;-4.40;102805.00;;;;5038870;28;20821;-71
2024/01/09 09:29:53;;;;;;;5.53;1.67;;;;;-4.40;102794.00;;;;5036459;28;20897;-74
2024/01/09 09:32:40;;;;;;;2.63;2.50;;;;;-4.20;102792.00;;;;5043824;28;20377;-71
2024/01/09 09:35:26;;;;;;;2.43;2.10;;;;;-4.20;102782.00;;;;5042684;28;20318;-71
2024/01/09 09:38:12;;;;;;;1.53;1.53;;;;;-4.10;102797.00;;;;5042546;28;20310;-70
2024/01/09 09:40:58;;;;;;;1.63;1.53;;;;;-4.10;102785.00;;;;5037448;28;20228;-72
2024/01/09 09:43:50;;;;;;;3.03;2.03;;;;;-4.10;102800.00;;;;5041015;28;20237;-70
2024/01/09 09:46:39;;;;;;;4.47;2.57;;;;;-4.00;102801.00;;;;5040320;28;20236;-70
2024/01/09 09:49:25;;;;;;;1.80;1.70;;;;;-4.00;102811.00;;;;5033343;28;20629;-72
2024/01/09 09:52:12;;;;;;;5.80;1.83;;;;;-4.00;102803.00;;;;5040292;28;20229;-76
2024/01/09 09:54:59;;;;;;;1.67;1.57;;;;;-3.80;102796.00;;;;5037042;28;20233;-72
2024/01/09 09:57:45;;;;;;;3.03;2.60;;;;;-3.70;102801.00;;;;5034921;28;20633;-73
2024/01/09 10:00:33;;;;;;;2.37;2.17;;;;;-3.60;102795.00;;;;5037101;28;20236;-74
2024/01/09 10:03:21;;;;;;;1.60;1.50;;;;;-3.60;102800.00;;;;5043974;28;20241;-73
2024/01/09 10:06:09;;;;;;;1.57;1.50;;;;;-3.60;102792.00;;;;5044597;28;20647;-75
2024/01/09 10:08:57;;;;;;;2.43;2.23;;;;;-3.50;102792.00;;;;5043308;28;20233;-72
2024/01/09 10:11:43;;;;;;;1.90;1.70;;;;;-3.30;102792.00;;;;5045470;28;20324;-73
2024/01/09 10:14:30;;;;;;;3.10;1.73;;;;;-3.30;102801.00;;;;5045815;28;20833;-73
2024/01/09 10:17:18;;;;;;;2.00;1.80;;;;;-3.10;102788.00;;;;5043003;28;20228;-73
2024/01/09 10:20:05;;;;;;;1.50;1.40;;;;;-3.10;102785.00;;;;5038281;28;20244;-73
2024/01/09 10:22:51;;;;;;;1.00;0.97;;;;;-3.10;102781.00;;;;5037803;28;20248;-72
2024/01/09 10:25:38;;;;;;;3.73;2.20;;;;;-3.00;102794.00;;;;5032838;28;20603;-72
2024/01/09 10:28:24;;;;;;;3.13;2.27;;;;;-2.90;102785.00;;;;5040844;28;20295;-73
2024/01/09 10:31:11;;;;;;;2.73;2.10;;;;;-2.90;102778.00;;;;5037737;28;20233;-72
2024/01/09 10:33:59;;;;;;;2.17;2.07;;;;;-2.70;102776.00;;;;5034279;28;20236;-72
2024/01/09 10:36:45;;;;;;;3.47;3.07;;;;;-2.60;102772.00;;;;5040630;28;20233;-71
2024/01/09 10:39:31;;;;;;;2.33;2.13;;;;;-2.60;102773.00;;;;5043130;28;20240;-72
2024/01/09 10:42:18;;;;;;;1.77;1.53;;;;;-2.50;102768.00;;;;5038833;28;20232;-72
2024/01/09 10:45:05;;;;;;;2.10;2.00;;;;;-2.40;102766.00;;;;5033572;28;20232;-73
2024/01/09 10:47:53;;;;;;;3.00;1.57;;;;;-2.40;102766.00;;;;5043675;28;20821;-73
2024/01/09 10:50:41;;;;;;;2.63;2.47;;;;;-2.30;102743.00;;;;5039035;28;20596;-72
2024/01/09 10:53:29;;;;;;;2.90;2.30;;;;;-2.10;102757.00;;;;5031319;28;20236;-73
2024/01/09 10:56:16;;;;;;;2.00;1.90;;;;;-2.10;102752.00;;;;5037265;28;20249;-73
2024/01/09 10:59:04;;;;;;;2.73;2.23;;;;;-1.80;102749.00;;;;5039450;28;20256;-72
2024/01/09 11:01:51;;;;;;;4.93;2.57;;;;;-1.80;102732.00;;;;5042422;28;20228;-72
2024/01/09 11:04:39;;;;;;;2.37;1.77;;;;;-1.80;102735.00;;;;5040771;28;20724;-73
2024/01/09 11:07:27;;;;;;;2.50;1.87;;;;;-1.80;102733.00;;;;5038553;28;20232;-72
2024/01/09 11:10:17;;;;;;;3.10;1.97;;;;;-1.70;102730.00;;;;5037158;28;20229;-71
2024/01/09 11:13:06;;;;;;;2.23;1.57;;;;;-1.60;102725.00;;;;5037738;28;20278;-71
2024/01/09 11:15:55;;;;;;;1.80;1.70;;;;;-1.50;102725.00;;;;5043766;28;20232;-75
2024/01/09 11:18:43;;;;;;;1.77;1.67;;;;;-1.50;102730.00;;;;5037111;28;20241;-69
2024/01/09 11:21:29;;;;;;;2.77;2.53;;;;;-1.50;102712.00;;;;5044203;28;20311;-72
2024/01/09 11:24:24;;;;;;;1.70;1.60;;;;;-1.50;102718.00;;;;5039203;28;20289;-73
2024/01/09 11:27:11;;;;;;;3.40;1.67;;;;;-1.40;102712.00;;;;5042115;28;20221;-73
2024/01/09 11:30:05;;;;;;;2.47;1.70;;;;;-1.40;102704.00;;;;5039756;28;20220;-72
2024/01/09 11:32:51;;;;;;;1.17;1.17;;;;;-1.30;102706.00;;;;5040120;28;20225;-75
2024/01/09 11:35:38;;;;;;;3.77;2.37;;;;;-1.40;102705.00;;;;5040872;28;20229;-71
2024/01/09 11:38:24;;;;;;;1.60;1.53;;;;;-1.40;102693.00;;;;5037939;28;20408;-71
2024/01/09 11:41:12;;;;;;;1.47;1.37;;;;;-1.20;102696.00;;;;5038261;28;20228;-71
2024/01/09 11:44:03;;;;;;;2.40;2.17;;;;;-1.10;102689.00;;;;5037712;28;20788;-72
2024/01/09 11:46:49;;;;;;;4.60;2.90;;;;;-1.00;102683.00;;;;5027303;28;20241;-73
2024/01/09 11:49:35;;;;;;;2.60;1.93;;;;;-1.00;102677.00;;;;5028409;28;20908;-71
2024/01/09 11:52:22;;;;;;;2.07;1.93;;;;;-0.90;102678.00;;;;5028929;28;20233;-74
2024/01/09 11:55:10;;;;;;;4.07;2.13;;;;;-0.90;102673.00;;;;5029781;28;20264;-72
2024/01/09 11:57:58;;;;;;;2.80;2.27;;;;;-1.00;102673.00;;;;5040472;28;20233;-72
2024/01/09 12:00:45;;;;;;;2.57;2.33;;;;;-0.80;102686.00;;;;5030791;28;20249;-73
2024/01/09 12:03:32;;;;;;;1.77;1.67;;;;;-0.70;102690.00;;;;5031570;28;20241;-71
2024/01/09 12:06:19;;;;;;;1.93;1.73;;;;;-0.60;102691.00;;;;5032850;28;20228;-71
2024/01/09 12:09:05;;;;;;;4.57;2.20;;;;;-0.50;102688.00;;;;5042666;28;20228;-73
2024/01/09 12:11:52;;;;;;;1.83;1.73;;;;;-0.60;102685.00;;;;5028959;28;20253;-70
2024/01/09 12:14:39;;;;;;;2.77;2.50;;;;;-0.60;102692.00;;;;5026294;28;20220;-72
2024/01/09 12:17:33;;;;;;;2.07;1.87;;;;;-0.50;102688.00;;;;5046450;28;20291;-71
2024/01/09 12:20:20;;;;;;;2.73;2.47;;;;;-0.30;102692.00;;;;5038960;28;20255;-72
2024/01/09 12:23:07;;;;;;;4.33;2.20;;;;;-0.50;102684.00;;;;5040694;28;20383;-68
2024/01/09 12:25:53;;;;;;;2.60;2.07;;;;;-0.60;102689.00;;;;5044765;28;20246;-70
2024/01/09 12:28:39;;;;;;;2.20;2.00;;;;;-0.60;102683.00;;;;5037769;28;20242;-69
2024/01/09 12:31:27;;;;;;;3.23;2.00;;;;;-0.60;102672.00;;;;5042780;28;20260;-70
2024/01/09 12:34:13;;;;;;;2.10;2.00;;;;;-0.50;102668.00;;;;5039754;28;20360;-70
2024/01/09 12:37:05;;;;;;;1.97;1.87;;;;;-0.60;102667.00;;;;5040280;28;20710;-71
2024/01/09 12:39:58;;;;;;;2.77;1.80;;;;;-0.70;102665.00;;;;5040834;28;20723;-74
2024/01/09 12:42:44;;;;;;;2.40;1.67;;;;;-0.70;102669.00;;;;5039226;28;20229;-72
2024/01/09 12:45:31;;;;;;;3.50;2.10;;;;;-0.70;102652.00;;;;5039969;28;20229;-71
2024/01/09 12:48:20;;;;;;;3.30;2.13;;;;;-0.60;102654.00;;;;5038641;28;20870;-71
2024/01/09 12:51:07;;;;;;;3.80;2.50;;;;;-0.70;102645.00;;;;5046164;28;20233;-71
2024/01/09 12:53:53;;;;;;;1.93;1.83;;;;;-0.70;102647.00;;;;5040897;28;20227;-71
2024/01/09 12:56:39;;;;;;;2.13;1.97;;;;;-0.90;102642.00;;;;5043658;28;20364;-71
2024/01/09 12:59:26;;;;;;;2.23;2.03;;;;;-0.80;102639.00;;;;5043083;28;20282;-73
2024/01/09 13:02:13;;;;;;;2.63;2.20;;;;;-0.80;102648.00;;;;5046445;28;20224;-72
2024/01/09 13:05:01;;;;;;;3.87;2.30;;;;;-0.80;102628.00;;;;5039082;28;20293;-70
2024/01/09 13:07:47;;;;;;;2.63;2.20;;;;;-0.80;102616.00;;;;5041924;28;20234;-72
2024/01/09 13:10:34;;;;;;;3.27;2.43;;;;;-0.80;102615.00;;;;5043933;28;20359;-68
2024/01/09 13:13:20;;;;;;;2.00;1.83;;;;;-0.80;102621.00;;;;5040240;28;20241;-71
2024/01/09 13:16:08;;;;;;;1.83;1.60;;;;;-0.80;102635.00;;;;5035524;28;20228;-71
2024/01/09 13:18:55;;;;;;;2.03;1.63;;;;;-0.80;102624.00;;;;5042168;28;20292;-72
2024/01/09 13:21:43;;;;;;;1.50;1.40;;;;;-0.80;102625.00;;;;5042238;28;20240;-73
2024/01/09 13:24:32;;;;;;;2.10;1.87;;;;;-0.80;102618.00;;;;5036009;28;20610;-71
2024/01/09 13:27:18;;;;;;;4.47;2.43;;;;;-0.80;102630.00;;;;5037723;28;20299;-70
2024/01/09 13:30:05;;;;;;;1.50;1.40;;;;;-0.70;102629.00;;;;5037837;28;20233;-72
2024/01/09 13:32:57;;;;;;;2.50;1.77;;;;;-0.70;102632.00;;;;5040680;28;20295;-68
2024/01/09 13:35:43;;;;;;;1.67;1.57;;;;;-0.70;102622.00;;;;5039579;28;20686;-71
2024/01/09 13:38:31;;;;;;;3.17;1.80;;;;;-0.70;102616.00;;;;5044113;28;20252;-72
2024/01/09 13:41:17;;;;;;;5.87;2.47;;;;;-0.60;102625.00;;;;5042278;28;20608;-71
2024/01/09 13:44:05;;;;;;;1.80;1.53;;;;;-0.70;102620.00;;;;5043859;28;20229;-70
2024/01/09 13:46:51;;;;;;;2.27;1.87;;;;;-0.70;102610.00;;;;5042706;28;20244;-71